X  Lukk Metar værinformasjon om luftfart     LBPD Plovdiv International Airport
Temperatur
7°C Temperatur
7°C Duggpunkt
100% Luftfuktighet



Vind
6 MPT
10 KM/T
3 M/S
5 KNP



110°
ØSØ
Nåværende forhold

Tåke Tåke
Trykk 1011.85 (hPa) - 29.88 (inHg)
Sikt 2.8 (mil) - 4.5 (km)
Flyplass
Flyplass-kode LBPD

Plassering: Plovdiv International Airport
Avstand: 14 (mi)

Metar:
LBPD 020230Z AUTO 11005KT 4500 BR OVC003/// 07/07 Q1012

Tid: 02-03-2024 04:30 EET